Time;durP1;ratioP1;P1;durP2;ratioP2;P2;SDS_P1;SDS_P2;PMS_P1;PMS_P2;Temp;Humidity;BMP_temperature;BMP_pressure;BME280_temperature;BME280_humidity;BME280_pressure;Samples;Min_cycle;Max_cycle;Signal;HPM_P1;HPM_P2
2023/07/12 00:01:41;;;;;;;2.07;1.90;;;28.00;99.90;;;;;;4974683;28;20205;-83
2023/07/12 00:04:14;;;;;;;2.20;2.00;;;28.10;99.90;;;;;;4969059;28;20204;-83
2023/07/12 00:06:45;;;;;;;4.30;2.00;;;27.70;99.90;;;;;;4953010;28;20680;-82
2023/07/12 00:09:16;;;;;;;2.73;1.90;;;27.10;99.90;;;;;;4968789;28;20211;-83
2023/07/12 00:11:48;;;;;;;2.07;1.93;;;27.30;99.90;;;;;;4954583;28;20257;-82
2023/07/12 00:14:19;;;;;;;4.90;2.30;;;27.60;99.90;;;;;;4967271;28;20211;-82
2023/07/12 00:16:50;;;;;;;3.73;1.90;;;27.50;99.90;;;;;;4961427;28;20651;-82
2023/07/12 00:19:23;;;;;;;3.50;1.80;;;27.60;99.90;;;;;;4957232;28;20219;-83
2023/07/12 00:21:54;;;;;;;2.20;2.00;;;27.70;99.90;;;;;;4969586;28;20234;-83
2023/07/12 00:24:25;;;;;;;2.23;1.80;;;27.40;99.90;;;;;;4970559;28;20668;-82
2023/07/12 00:26:58;;;;;;;2.77;2.07;;;27.20;99.90;;;;;;4969837;28;20219;-82
2023/07/12 00:29:29;;;;;;;3.67;2.20;;;27.30;99.90;;;;;;4958724;28;20285;-83
2023/07/12 00:32:00;;;;;;;2.07;1.87;;;27.30;99.90;;;;;;4966173;28;20578;-82
2023/07/12 00:34:33;;;;;;;2.90;1.93;;;26.50;99.90;;;;;;4966273;28;20726;-82
2023/07/12 00:37:04;;;;;;;3.00;1.80;;;26.30;99.90;;;;;;4966551;28;20214;-82
2023/07/12 00:39:35;;;;;;;2.97;2.10;;;26.40;99.90;;;;;;4964082;28;20211;-82
2023/07/12 00:42:14;;;;;;;2.00;1.80;;;26.60;99.90;;;;;;4956958;28;20199;-83
2023/07/12 00:44:49;;;;;;;2.20;2.00;;;26.60;99.90;;;;;;4956411;28;20240;-80
2023/07/12 00:47:22;;;;;;;2.80;2.10;;;26.50;99.90;;;;;;4973225;28;20268;-81
2023/07/12 00:49:56;;;;;;;2.40;1.93;;;26.60;99.90;;;;;;4961458;28;20208;-82
2023/07/12 00:52:28;;;;;;;2.13;2.03;;;26.80;99.90;;;;;;4970670;28;20297;-82
2023/07/12 00:55:01;;;;;;;2.10;1.90;;;26.50;99.90;;;;;;4970827;28;20730;-82
2023/07/12 00:57:33;;;;;;;1.90;1.80;;;26.90;99.90;;;;;;4969209;28;20214;-83
2023/07/12 01:00:10;;;;;;;3.40;2.03;;;27.40;99.90;;;;;;4970852;28;20210;-83
2023/07/12 01:02:45;;;;;;;2.80;2.17;;;28.00;99.90;;;;;;4964081;28;20578;-86
2023/07/12 01:05:18;;;;;;;2.57;1.90;;;28.40;99.90;;;;;;4965857;28;20203;-86
2023/07/12 01:07:51;;;;;;;4.87;2.10;;;28.90;99.90;;;;;;4967914;28;20297;-86
2023/07/12 01:10:22;;;;;;;3.27;1.93;;;29.30;99.90;;;;;;4969459;28;20217;-84
2023/07/12 01:23:33;;;;;;;6.05;2.17;;;29.40;99.90;;;;;;5022997;27;3066571;-86
2023/07/12 01:26:28;;;;;;;6.72;2.30;;;29.80;99.90;;;;;;5104794;27;20216;-85
2023/07/12 01:29:02;;;;;;;3.30;1.88;;;29.70;99.90;;;;;;5098486;28;20862;-86
2023/07/12 01:31:35;;;;;;;2.78;1.90;;;29.60;99.90;;;;;;5091320;28;20733;-86
2023/07/12 01:34:07;;;;;;;4.85;2.22;;;29.50;99.90;;;;;;5105302;28;20220;-86
2023/07/12 01:36:39;;;;;;;3.08;2.00;;;29.90;99.90;;;;;;5102116;28;20207;-86
2023/07/12 01:39:12;;;;;;;3.33;1.73;;;30.10;99.90;;;;;;5094544;28;20665;-85
2023/07/12 01:41:44;;;;;;;2.70;2.22;;;29.90;99.90;;;;;;5097504;28;20237;-84
2023/07/12 01:44:15;;;;;;;3.45;1.92;;;30.00;99.90;;;;;;5104657;28;20209;-86
2023/07/12 01:46:46;;;;;;;2.35;2.05;;;29.70;99.90;;;;;;5104725;28;20191;-85
2023/07/12 01:49:17;;;;;;;2.55;2.35;;;29.70;99.90;;;;;;5102818;28;20393;-85
2023/07/12 01:51:49;;;;;;;2.30;2.10;;;29.40;99.90;;;;;;5099576;28;20231;-84
2023/07/12 01:54:22;;;;;;;3.25;1.90;;;28.70;99.90;;;;;;5125901;28;20208;-86
2023/07/12 01:56:53;;;;;;;2.50;2.13;;;29.10;99.90;;;;;;5124610;28;20212;-86
2023/07/12 01:59:24;;;;;;;2.85;1.77;;;29.20;99.90;;;;;;5096021;28;20198;-86
2023/07/12 02:01:56;;;;;;;2.08;1.88;;;29.20;99.90;;;;;;5105619;28;20256;-86
2023/07/12 02:04:27;;;;;;;2.45;1.60;;;29.40;99.90;;;;;;5104783;28;20198;-84
2023/07/12 02:06:58;;;;;;;2.30;2.10;;;29.70;99.90;;;;;;5093680;28;20656;-85
2023/07/12 02:09:37;;;;;;;3.47;1.70;;;29.40;99.90;;;;;;5093499;28;20668;-86
2023/07/12 02:12:09;;;;;;;2.28;1.60;;;28.70;99.90;;;;;;5095146;28;20225;-84
2023/07/12 02:14:40;;;;;;;3.88;2.05;;;27.60;99.90;;;;;;5100425;28;20214;-85
2023/07/12 02:17:12;;;;;;;4.40;2.15;;;27.20;99.90;;;;;;5095502;28;20210;-85
2023/07/12 02:19:44;;;;;;;1.90;1.67;;;26.80;99.90;;;;;;5088208;28;20653;-84
2023/07/12 02:22:16;;;;;;;2.60;1.80;;;26.40;99.90;;;;;;5102311;27;20214;-85
2023/07/12 02:24:48;;;;;;;3.63;1.80;;;26.20;99.90;;;;;;5113084;28;20195;-85
2023/07/12 02:27:20;;;;;;;2.50;2.00;;;25.90;99.90;;;;;;5113562;28;20628;-85
2023/07/12 02:29:51;;;;;;;2.00;1.73;;;25.40;99.90;;;;;;5107525;28;20278;-85
2023/07/12 02:32:23;;;;;;;4.70;1.80;;;25.20;99.90;;;;;;5109179;28;20241;-85
2023/07/12 02:34:55;;;;;;;2.30;2.10;;;25.30;99.90;;;;;;5110301;28;20252;-85
2023/07/12 02:37:27;;;;;;;1.87;1.60;;;25.20;99.90;;;;;;5118339;28;20301;-85
2023/07/12 02:40:01;;;;;;;2.57;2.00;;;25.20;99.90;;;;;;5123060;28;20769;-86
2023/07/12 02:42:36;;;;;;;3.13;2.03;;;25.00;99.90;;;;;;5094923;28;20206;-85
2023/07/12 02:45:09;;;;;;;2.50;1.90;;;24.80;99.90;;;;;;5094296;28;20237;-84
2023/07/12 02:47:40;;;;;;;2.37;1.70;;;24.60;99.90;;;;;;5106387;28;20217;-85
2023/07/12 02:50:12;;;;;;;5.23;1.93;;;24.50;99.90;;;;;;5099926;28;20622;-84
2023/07/12 02:52:44;;;;;;;2.50;1.47;;;24.40;99.90;;;;;;5111283;28;20285;-86
2023/07/12 02:55:17;;;;;;;4.30;1.80;;;24.30;99.90;;;;;;5113540;28;20289;-86
2023/07/12 02:57:48;;;;;;;2.20;1.80;;;24.20;99.90;;;;;;5111537;28;20225;-84
2023/07/12 03:00:21;;;;;;;2.87;1.60;;;24.10;99.90;;;;;;5106928;28;20195;-85
2023/07/12 03:02:52;;;;;;;1.90;1.70;;;24.10;99.90;;;;;;5104804;27;20198;-86
2023/07/12 03:05:24;;;;;;;2.37;1.73;;;24.00;99.90;;;;;;5093893;27;20286;-84
2023/07/12 03:07:55;;;;;;;1.90;1.60;;;23.90;99.90;;;;;;5083920;28;20227;-84
2023/07/12 03:10:28;;;;;;;2.33;1.60;;;23.80;99.90;;;;;;5089800;28;20211;-84
2023/07/12 03:12:59;;;;;;;2.73;1.80;;;23.70;99.90;;;;;;5089879;28;20233;-83
2023/07/12 03:15:31;;;;;;;1.70;1.57;;;23.70;99.90;;;;;;5082181;28;20214;-83
2023/07/12 03:18:03;;;;;;;2.20;1.53;;;23.70;99.90;;;;;;5076981;28;20199;-84
2023/07/12 03:20:35;;;;;;;1.63;1.53;;;23.60;99.90;;;;;;5092144;28;20230;-82
2023/07/12 03:23:07;;;;;;;2.00;1.60;;;23.50;99.90;;;;;;5086929;28;20242;-85
2023/07/12 03:25:40;;;;;;;2.03;1.70;;;23.50;99.90;;;;;;5080690;28;20199;-85
2023/07/12 03:28:12;;;;;;;2.43;1.73;;;23.40;99.90;;;;;;5052986;28;20207;-84
2023/07/12 03:30:44;;;;;;;1.97;1.70;;;23.20;99.90;;;;;;5081097;28;20199;-84
2023/07/12 03:33:15;;;;;;;4.00;1.70;;;23.10;99.90;;;;;;5079560;28;20231;-85
2023/07/12 03:35:51;;;;;;;1.70;1.60;;;23.00;99.90;;;;;;5085734;28;20252;-84
2023/07/12 03:38:24;;;;;;;2.23;1.63;;;23.00;99.90;;;;;;5081424;28;20263;-84
2023/07/12 03:40:59;;;;;;;3.00;1.90;;;22.90;99.90;;;;;;5076322;28;20634;-84
2023/07/12 03:43:30;;;;;;;2.03;1.67;;;22.80;99.90;;;;;;5081433;28;20543;-83
2023/07/12 03:46:01;;;;;;;4.90;1.87;;;22.70;99.90;;;;;;5086012;28;20203;-85
2023/07/12 03:48:34;;;;;;;2.43;2.00;;;22.60;99.90;;;;;;5080929;28;20203;-84
2023/07/12 03:51:05;;;;;;;2.47;2.00;;;22.50;99.90;;;;;;5082807;28;20215;-85
2023/07/12 03:53:37;;;;;;;2.73;1.90;;;22.40;99.90;;;;;;5080677;28;20231;-84
2023/07/12 03:56:12;;;;;;;1.57;1.47;;;22.30;99.90;;;;;;5076443;28;20265;-85
2023/07/12 03:58:44;;;;;;;2.30;1.83;;;22.20;99.90;;;;;;5095647;28;20240;-83
2023/07/12 04:01:15;;;;;;;1.77;1.63;;;22.10;99.90;;;;;;5089813;28;20199;-84
2023/07/12 04:03:47;;;;;;;3.10;1.70;;;22.00;99.90;;;;;;5086052;28;20212;-83
2023/07/12 04:06:19;;;;;;;2.73;1.97;;;21.90;99.90;;;;;;5085148;28;20219;-85
2023/07/12 04:08:50;;;;;;;3.20;1.90;;;21.80;99.90;;;;;;5089385;28;20199;-83
2023/07/12 04:11:28;;;;;;;3.33;1.77;;;21.80;99.90;;;;;;5104763;28;20201;-84
2023/07/12 04:14:01;;;;;;;2.00;1.83;;;21.60;99.90;;;;;;5088072;28;20231;-85
2023/07/12 04:16:34;;;;;;;2.30;1.77;;;21.50;99.90;;;;;;5094183;28;20449;-86
2023/07/12 04:19:05;;;;;;;2.50;1.87;;;21.40;99.90;;;;;;5096686;28;20227;-84
2023/07/12 04:21:38;;;;;;;2.00;1.70;;;21.30;99.90;;;;;;5086232;28;20217;-86
2023/07/12 04:24:11;;;;;;;2.23;1.90;;;21.10;99.90;;;;;;5079704;28;20210;-85
2023/07/12 04:26:46;;;;;;;3.60;1.70;;;21.00;99.90;;;;;;5079253;28;20214;-86
2023/07/12 04:29:18;;;;;;;1.93;1.77;;;20.90;99.90;;;;;;5061202;28;20284;-87
2023/07/12 04:31:52;;;;;;;3.43;1.93;;;20.80;99.90;;;;;;5088264;28;20211;-87
2023/07/12 04:34:24;;;;;;;3.40;2.00;;;20.70;99.90;;;;;;5092343;28;20210;-87
2023/07/12 04:37:09;;;;;;;5.73;2.33;;;20.70;99.90;;;;;;5089114;28;20203;-86
2023/07/12 04:39:42;;;;;;;4.50;2.10;;;20.60;99.90;;;;;;5103430;28;20640;-85
2023/07/12 04:42:17;;;;;;;4.37;2.30;;;20.50;99.90;;;;;;5092626;28;20195;-86
2023/07/12 04:44:48;;;;;;;3.80;2.03;;;20.50;99.90;;;;;;5091910;28;20764;-84
2023/07/12 04:47:21;;;;;;;2.70;2.20;;;20.40;99.90;;;;;;5092754;28;20221;-85
2023/07/12 04:49:55;;;;;;;3.20;2.00;;;20.20;99.90;;;;;;5062294;28;20236;-85
2023/07/12 04:52:27;;;;;;;3.37;1.90;;;20.20;99.90;;;;;;5099554;28;20230;-85
2023/07/12 04:54:59;;;;;;;2.60;1.80;;;20.20;99.90;;;;;;5086280;28;20233;-84
2023/07/12 04:57:33;;;;;;;3.40;1.67;;;20.20;99.90;;;;;;5088043;28;20199;-83
2023/07/12 05:00:06;;;;;;;2.73;1.80;;;20.10;99.90;;;;;;5094775;28;20210;-84
2023/07/12 05:02:38;;;;;;;2.80;2.10;;;20.10;99.90;;;;;;5084680;28;20207;-83
2023/07/12 05:05:10;;;;;;;3.63;1.93;;;20.10;99.90;;;;;;5093523;28;20211;-85
2023/07/12 05:07:43;;;;;;;5.47;2.00;;;20.10;99.90;;;;;;5071854;28;20206;-85
2023/07/12 05:10:14;;;;;;;3.37;1.73;;;20.00;99.90;;;;;;5082827;28;20210;-84
2023/07/12 05:12:47;;;;;;;3.73;1.80;;;20.00;99.90;;;;;;5080732;28;20228;-85
2023/07/12 05:15:20;;;;;;;2.97;1.70;;;19.90;99.90;;;;;;5086608;28;20202;-86
2023/07/12 05:17:52;;;;;;;1.90;1.53;;;19.80;99.90;;;;;;5076180;28;20208;-83
2023/07/12 05:20:24;;;;;;;2.40;1.70;;;19.90;99.90;;;;;;5082740;28;20210;-83
2023/07/12 05:22:59;;;;;;;4.50;2.07;;;19.80;99.90;;;;;;5083161;28;20581;-84
2023/07/12 05:25:31;;;;;;;3.67;1.70;;;19.70;99.90;;;;;;5084598;28;20202;-85
2023/07/12 05:28:04;;;;;;;2.27;1.50;;;19.60;99.90;;;;;;5086809;28;20853;-84
2023/07/12 05:30:35;;;;;;;3.20;1.73;;;19.40;99.90;;;;;;5086537;28;20199;-84
2023/07/12 05:33:06;;;;;;;1.73;1.60;;;19.40;99.90;;;;;;5087630;28;20320;-84
2023/07/12 05:35:38;;;;;;;2.90;1.60;;;19.30;99.90;;;;;;5080737;28;20215;-83
2023/07/12 05:38:09;;;;;;;3.57;1.97;;;19.30;99.90;;;;;;5089422;28;20788;-84
2023/07/12 05:40:41;;;;;;;4.23;1.70;;;19.20;99.90;;;;;;5090563;28;20210;-83
2023/07/12 05:43:23;;;;;;;2.33;1.80;;;19.10;99.90;;;;;;5088964;28;20203;-84
2023/07/12 05:45:58;;;;;;;2.73;1.57;;;19.10;99.90;;;;;;5080068;28;20503;-84
2023/07/12 05:48:29;;;;;;;2.17;1.57;;;19.00;99.90;;;;;;5088908;28;20210;-85
2023/07/12 05:51:03;;;;;;;2.00;1.70;;;18.90;99.90;;;;;;5080029;28;20221;-83
2023/07/12 05:53:35;;;;;;;2.20;1.70;;;18.90;99.90;;;;;;5092192;28;20230;-84
2023/07/12 05:56:07;;;;;;;2.10;1.47;;;18.90;99.90;;;;;;5080767;28;20210;-84
2023/07/12 05:58:40;;;;;;;4.43;1.60;;;18.90;99.90;;;;;;5085232;28;20199;-84
2023/07/12 06:01:11;;;;;;;1.93;1.40;;;18.90;99.90;;;;;;5091484;28;20665;-84
2023/07/12 06:03:43;;;;;;;3.10;2.03;;;18.80;99.90;;;;;;5094042;28;20231;-85
2023/07/12 06:06:14;;;;;;;3.33;1.77;;;18.80;99.90;;;;;;5092338;28;20221;-87
2023/07/12 06:08:47;;;;;;;1.80;1.30;;;18.70;99.90;;;;;;5062420;28;20252;-87
2023/07/12 06:11:18;;;;;;;1.37;1.27;;;18.60;99.90;;;;;;5084692;28;20211;-86
2023/07/12 06:13:51;;;;;;;4.60;1.50;;;18.60;99.90;;;;;;5095245;28;20237;-86
2023/07/12 06:16:22;;;;;;;2.37;1.20;;;18.60;99.90;;;;;;5096348;28;20215;-86
2023/07/12 06:18:54;;;;;;;2.53;1.40;;;18.50;99.90;;;;;;5099024;28;20571;-85
2023/07/12 06:21:26;;;;;;;2.63;1.57;;;18.40;99.90;;;;;;5103033;28;20199;-85
2023/07/12 06:23:59;;;;;;;2.70;1.50;;;18.40;99.90;;;;;;5112389;28;20219;-86
2023/07/12 06:26:32;;;;;;;1.50;1.20;;;18.40;99.90;;;;;;5111414;28;20265;-86
2023/07/12 06:29:06;;;;;;;2.53;1.30;;;18.30;99.90;;;;;;5102572;28;20289;-85
2023/07/12 06:31:39;;;;;;;3.17;1.40;;;18.20;99.90;;;;;;5097050;28;20624;-85
2023/07/12 06:34:11;;;;;;;1.83;1.40;;;18.10;99.90;;;;;;5098446;28;20210;-87
2023/07/12 06:36:44;;;;;;;5.40;1.40;;;18.10;99.90;;;;;;5093482;28;20199;-84
2023/07/12 06:39:16;;;;;;;3.43;1.33;;;18.10;99.90;;;;;;5091265;28;20211;-84
2023/07/12 06:41:48;;;;;;;4.23;1.60;;;18.00;99.90;;;;;;5067431;28;20207;-85
2023/07/12 06:44:21;;;;;;;2.60;1.03;;;18.00;99.90;;;;;;5088370;28;20239;-85
2023/07/12 06:46:53;;;;;;;2.33;1.50;;;17.90;99.90;;;;;;5092065;28;20325;-85
2023/07/12 06:49:24;;;;;;;2.73;1.50;;;17.90;99.90;;;;;;5090837;28;20207;-85
2023/07/12 06:51:57;;;;;;;1.43;1.23;;;17.80;99.90;;;;;;5085562;28;20229;-85
2023/07/12 06:54:28;;;;;;;5.70;1.50;;;17.70;99.90;;;;;;5074751;28;20916;-84
2023/07/12 06:57:02;;;;;;;3.50;1.47;;;17.70;99.90;;;;;;5089283;28;20214;-85
2023/07/12 06:59:35;;;;;;;2.07;1.30;;;17.70;99.90;;;;;;5103796;28;20343;-85
2023/07/12 07:02:07;;;;;;;1.63;1.30;;;17.70;99.90;;;;;;5086080;28;20211;-85
2023/07/12 07:04:39;;;;;;;2.23;1.50;;;17.60;99.90;;;;;;5092829;28;20288;-85
2023/07/12 07:07:10;;;;;;;2.57;1.33;;;17.50;99.90;;;;;;5092167;28;20211;-86
2023/07/12 07:09:42;;;;;;;2.63;1.37;;;17.40;99.90;;;;;;5092883;28;20260;-85
2023/07/12 07:12:13;;;;;;;2.87;1.30;;;17.40;99.90;;;;;;5088945;28;20203;-87
2023/07/12 07:14:48;;;;;;;1.93;1.40;;;17.30;99.90;;;;;;5091151;28;20614;-85
2023/07/12 07:17:20;;;;;;;1.83;1.30;;;17.20;99.90;;;;;;5078708;28;20209;-87
2023/07/12 07:19:51;;;;;;;3.73;1.40;;;17.10;99.90;;;;;;5088960;28;20632;-85
2023/07/12 07:22:23;;;;;;;1.47;1.37;;;17.10;99.90;;;;;;5092893;28;20257;-86
2023/07/12 07:24:55;;;;;;;2.43;1.20;;;17.10;99.90;;;;;;5091443;28;20311;-86
2023/07/12 07:27:27;;;;;;;2.70;1.33;;;17.10;99.90;;;;;;5091129;28;20195;-87
2023/07/12 07:30:00;;;;;;;3.07;1.30;;;17.10;99.90;;;;;;5090970;28;20647;-87
2023/07/12 07:32:32;;;;;;;1.27;1.17;;;17.10;99.90;;;;;;5090596;28;20213;-86
2023/07/12 07:35:03;;;;;;;2.07;1.50;;;17.10;99.90;;;;;;5091434;28;20290;-87
2023/07/12 07:37:34;;;;;;;2.37;1.60;;;17.00;99.90;;;;;;5092915;28;20260;-86
2023/07/12 07:40:07;;;;;;;2.77;1.33;;;17.00;99.90;;;;;;5076200;28;20207;-87
2023/07/12 07:42:41;;;;;;;5.53;1.43;;;16.90;99.90;;;;;;5089656;28;20271;-86
2023/07/12 07:45:15;;;;;;;2.13;1.30;;;16.80;99.90;;;;;;5091805;28;20239;-86
2023/07/12 07:47:47;;;;;;;3.97;1.50;;;16.70;99.90;;;;;;5090182;28;20197;-85
2023/07/12 07:50:20;;;;;;;2.00;1.50;;;16.80;99.90;;;;;;5085259;28;20203;-86
2023/07/12 07:52:52;;;;;;;2.87;1.40;;;16.80;99.90;;;;;;5088024;28;20256;-84
2023/07/12 07:55:26;;;;;;;2.23;1.40;;;16.70;99.90;;;;;;5073537;28;20218;-85
2023/07/12 07:57:57;;;;;;;2.87;1.30;;;16.60;99.90;;;;;;5085841;28;20981;-87
2023/07/12 08:00:31;;;;;;;3.33;1.50;;;16.50;99.90;;;;;;5083503;28;20200;-86
2023/07/12 08:03:03;;;;;;;2.40;1.40;;;16.50;99.90;;;;;;5086214;28;20258;-85
2023/07/12 08:05:36;;;;;;;2.00;1.50;;;16.50;99.90;;;;;;5086722;28;20234;-84
2023/07/12 08:08:08;;;;;;;2.37;1.20;;;16.40;99.90;;;;;;5086608;28;20242;-86
2023/07/12 08:10:40;;;;;;;2.53;1.40;;;16.50;99.90;;;;;;5090585;28;20203;-85
2023/07/12 08:13:13;;;;;;;1.53;1.10;;;16.40;99.90;;;;;;5088654;28;20214;-88
2023/07/12 08:15:46;;;;;;;1.73;1.37;;;16.40;99.90;;;;;;5088600;28;20203;-86
2023/07/12 08:18:17;;;;;;;2.73;1.40;;;16.30;99.90;;;;;;5081711;28;20217;-85
2023/07/12 08:20:49;;;;;;;2.73;1.20;;;16.20;99.90;;;;;;5082367;28;20242;-88
2023/07/12 08:23:21;;;;;;;1.90;1.10;;;16.20;99.90;;;;;;5075469;28;20212;-85
2023/07/12 08:25:54;;;;;;;2.07;1.13;;;16.20;99.90;;;;;;5081973;28;20231;-86
2023/07/12 08:28:26;;;;;;;3.83;1.40;;;16.10;99.90;;;;;;5079067;28;20226;-86
2023/07/12 08:31:00;;;;;;;3.53;1.50;;;16.00;99.90;;;;;;5101724;28;20211;-86
2023/07/12 08:33:32;;;;;;;3.13;1.60;;;16.00;99.90;;;;;;5092605;28;20197;-86
2023/07/12 08:36:03;;;;;;;2.20;1.13;;;15.90;99.90;;;;;;5117973;28;20226;-86
2023/07/12 08:38:35;;;;;;;2.53;1.30;;;15.90;99.90;;;;;;5113588;28;20416;-87
2023/07/12 08:41:15;;;;;;;1.93;1.33;;;15.90;99.90;;;;;;5090787;28;20256;-86
2023/07/12 08:43:47;;;;;;;1.40;1.20;;;15.90;99.90;;;;;;5090317;28;20658;-85
2023/07/12 08:46:23;;;;;;;2.90;1.30;;;15.90;99.90;;;;;;5086704;28;20223;-86
2023/07/12 08:48:59;;;;;;;2.77;1.30;;;15.90;99.90;;;;;;5085455;28;20202;-86
2023/07/12 08:51:35;;;;;;;1.87;1.20;;;15.90;99.90;;;;;;5088078;28;20202;-84
2023/07/12 08:54:07;;;;;;;1.67;1.10;;;15.90;99.90;;;;;;5060671;28;20198;-86
2023/07/12 08:56:39;;;;;;;2.93;1.30;;;15.80;99.90;;;;;;5088018;28;20584;-85
2023/07/12 08:59:16;;;;;;;1.67;1.10;;;15.80;99.90;;;;;;5083790;28;20658;-85
2023/07/12 09:01:58;;;;;;;5.43;1.30;;;15.70;99.90;;;;;;5085106;28;20213;-84
2023/07/12 09:04:32;;;;;;;1.27;1.17;;;15.70;99.90;;;;;;5089375;28;20241;-86
2023/07/12 09:07:07;;;;;;;3.80;1.13;;;15.60;99.90;;;;;;5088050;28;20703;-85
2023/07/12 09:09:39;;;;;;;1.47;1.20;;;15.60;99.90;;;;;;5085435;28;20201;-86
2023/07/12 09:12:25;;;;;;;2.07;1.20;;;15.60;99.90;;;;;;5088861;28;20295;-85
2023/07/12 09:15:00;;;;;;;2.43;1.30;;;15.60;99.90;;;;;;5090493;28;20639;-86
2023/07/12 09:17:36;;;;;;;1.37;0.90;;;15.50;99.90;;;;;;5086320;28;20296;-85
2023/07/12 09:20:24;;;;;;;1.63;1.00;;;15.50;99.90;;;;;;5081325;28;20206;-87
2023/07/12 09:22:56;;;;;;;2.27;1.33;;;15.40;99.90;;;;;;5083624;28;20234;-84
2023/07/12 09:25:37;;;;;;;1.53;1.20;;;15.50;99.90;;;;;;5087164;28;20242;-85
2023/07/12 09:28:13;;;;;;;2.57;1.30;;;15.40;99.90;;;;;;5087449;28;20261;-85
2023/07/12 09:30:45;;;;;;;1.50;1.10;;;15.30;99.90;;;;;;5086931;28;20213;-86
2023/07/12 09:33:25;;;;;;;2.23;1.13;;;15.30;99.90;;;;;;5070360;28;20216;-86
2023/07/12 09:36:07;;;;;;;2.67;1.00;;;15.20;99.90;;;;;;5087892;28;20586;-86
2023/07/12 09:38:39;;;;;;;2.23;1.40;;;15.20;99.90;;;;;;5079368;28;20218;-83
2023/07/12 09:41:17;;;;;;;2.10;1.33;;;15.20;99.90;;;;;;5091193;28;20247;-86
2023/07/12 09:43:55;;;;;;;2.30;1.47;;;15.20;99.90;;;;;;5100362;28;20932;-85
2023/07/12 09:46:33;;;;;;;1.77;1.10;;;15.10;99.90;;;;;;5088184;28;20231;-86
2023/07/12 09:49:13;;;;;;;1.80;1.40;;;15.10;99.90;;;;;;5090810;28;20198;-85
2023/07/12 09:51:55;;;;;;;5.03;1.50;;;15.00;99.90;;;;;;5094943;28;20383;-86
2023/07/12 09:54:35;;;;;;;2.67;1.37;;;14.90;99.90;;;;;;5096056;28;20205;-86
2023/07/12 09:57:15;;;;;;;3.20;1.20;;;14.90;99.90;;;;;;5100009;28;20252;-86
2023/07/12 09:59:59;;;;;;;3.33;1.40;;;14.90;99.90;;;;;;5073305;28;20200;-86
2023/07/12 10:02:37;;;;;;;3.33;1.33;;;14.80;99.90;;;;;;5111984;28;20375;-86
2023/07/12 10:05:15;;;;;;;2.07;1.30;;;14.80;99.90;;;;;;5126972;28;20182;-87
2023/07/12 10:08:00;;;;;;;3.27;1.33;;;14.70;99.90;;;;;;5114003;28;20207;-87
2023/07/12 10:10:36;;;;;;;2.73;1.27;;;14.70;99.90;;;;;;5095647;28;20211;-86
2023/07/12 10:13:24;;;;;;;1.30;1.10;;;14.70;99.90;;;;;;5096108;28;20666;-87
2023/07/12 10:15:57;;;;;;;2.37;1.07;;;14.70;99.90;;;;;;5095308;28;20203;-87
2023/07/12 10:18:34;;;;;;;2.73;1.30;;;14.70;99.90;;;;;;5095830;28;20222;-87
2023/07/12 10:21:10;;;;;;;2.67;1.30;;;14.60;99.90;;;;;;5093917;28;20929;-87
2023/07/12 10:23:47;;;;;;;2.63;0.97;;;14.60;99.90;;;;;;5094780;28;20221;-86
2023/07/12 10:26:19;;;;;;;4.10;1.10;;;14.60;99.90;;;;;;5084953;28;20317;-86
2023/07/12 10:28:57;;;;;;;1.93;1.20;;;14.60;99.90;;;;;;5094604;28;20213;-84
2023/07/12 10:31:40;;;;;;;3.17;1.30;;;14.60;99.90;;;;;;5100423;28;20210;-86
2023/07/12 10:34:25;;;;;;;1.67;1.10;;;14.60;99.90;;;;;;5095024;28;20596;-85
2023/07/12 10:37:07;;;;;;;2.13;1.30;;;14.60;99.90;;;;;;5094929;28;20697;-86
2023/07/12 10:39:39;;;;;;;2.87;1.30;;;14.50;99.90;;;;;;5095769;28;20230;-87
2023/07/12 10:42:23;;;;;;;3.13;1.37;;;14.50;99.90;;;;;;5092059;28;20607;-86
2023/07/12 10:44:58;;;;;;;2.03;1.10;;;14.50;99.90;;;;;;5106796;28;20211;-86
2023/07/12 10:47:36;;;;;;;2.77;1.30;;;14.50;99.90;;;;;;5108914;28;20309;-86
2023/07/12 10:50:22;;;;;;;1.57;1.07;;;14.50;99.90;;;;;;5102322;28;20229;-85
2023/07/12 10:53:02;;;;;;;2.07;1.20;;;14.50;99.90;;;;;;5106365;28;20259;-86
2023/07/12 10:55:44;;;;;;;2.27;1.30;;;14.50;99.90;;;;;;5086486;28;20199;-86
2023/07/12 10:58:46;;;;;;;1.47;1.00;;;14.40;99.90;;;;;;5097194;28;20253;-86
2023/07/12 11:01:52;;;;;;;6.50;1.40;;;14.40;99.90;;;;;;5092785;28;20202;-87
2023/07/12 11:04:35;;;;;;;1.60;1.20;;;14.40;99.90;;;;;;5080610;28;20282;-86
2023/07/12 11:07:37;;;;;;;2.17;1.10;;;14.30;99.90;;;;;;5093966;28;20238;-86
2023/07/12 11:10:28;;;;;;;3.27;1.40;;;14.30;99.90;;;;;;5103500;28;20248;-85
2023/07/12 11:13:12;;;;;;;1.67;1.40;;;14.30;99.90;;;;;;5078196;28;20286;-86
2023/07/12 11:16:00;;;;;;;2.60;1.63;;;14.20;99.90;;;;;;5087350;28;20204;-86
2023/07/12 11:18:37;;;;;;;2.90;1.27;;;14.20;99.90;;;;;;5085754;28;20224;-86
2023/07/12 11:21:27;;;;;;;3.67;1.27;;;14.20;99.90;;;;;;5090432;28;20210;-86
2023/07/12 11:24:00;;;;;;;2.93;1.33;;;14.20;99.90;;;;;;5088466;28;20214;-86
2023/07/12 11:26:43;;;;;;;2.90;1.40;;;14.10;99.90;;;;;;5079184;28;20255;-86
2023/07/12 11:29:31;;;;;;;1.70;0.93;;;14.10;99.90;;;;;;5092836;28;20205;-87
2023/07/12 11:32:17;;;;;;;2.53;1.17;;;14.10;99.90;;;;;;5081464;28;20208;-84
2023/07/12 11:34:50;;;;;;;7.27;1.47;;;14.10;99.90;;;;;;5085982;28;20213;-86
2023/07/12 11:37:32;;;;;;;2.40;1.20;;;14.00;99.90;;;;;;5092655;28;20687;-86
2023/07/12 11:40:04;;;;;;;5.10;1.20;;;14.00;99.90;;;;;;5094371;28;20221;-86
2023/07/12 11:42:38;;;;;;;1.70;1.00;;;14.00;99.90;;;;;;5092141;28;20733;-85
2023/07/12 11:45:13;;;;;;;3.30;1.47;;;14.00;99.90;;;;;;5087722;28;20299;-86
2023/07/12 11:47:50;;;;;;;2.20;1.27;;;14.00;99.90;;;;;;5093387;28;20857;-86
2023/07/12 11:50:25;;;;;;;2.03;1.37;;;14.00;99.90;;;;;;5083684;28;20267;-86
2023/07/12 11:52:58;;;;;;;4.13;1.40;;;13.70;99.90;;;;;;5095332;28;20211;-86
2023/07/12 11:55:30;;;;;;;1.57;1.17;;;13.80;99.90;;;;;;5101356;28;20204;-87
2023/07/12 11:58:03;;;;;;;2.60;1.30;;;13.80;99.90;;;;;;5096974;28;20566;-84
2023/07/12 12:00:38;;;;;;;2.03;1.30;;;13.80;99.90;;;;;;5080768;28;20216;-86
2023/07/12 12:03:09;;;;;;;2.73;1.30;;;13.80;99.90;;;;;;5090429;28;20214;-85
2023/07/12 12:05:43;;;;;;;2.67;1.30;;;13.70;99.90;;;;;;5091647;28;20230;-85
2023/07/12 12:08:19;;;;;;;1.37;0.90;;;13.80;99.90;;;;;;5089884;28;20238;-85
2023/07/12 12:10:54;;;;;;;2.90;1.40;;;13.80;99.90;;;;;;5089574;28;20293;-87
2023/07/12 12:13:33;;;;;;;2.60;1.20;;;13.70;99.90;;;;;;5088022;28;20241;-87
2023/07/12 12:16:18;;;;;;;3.17;1.27;;;13.60;99.90;;;;;;5092042;28;20206;-87
2023/07/12 12:18:55;;;;;;;2.23;1.10;;;13.60;99.90;;;;;;5089348;28;20210;-87
2023/07/12 12:21:27;;;;;;;1.80;1.20;;;13.60;99.90;;;;;;5085504;28;20233;-87
2023/07/12 12:24:06;;;;;;;3.60;1.20;;;13.60;99.90;;;;;;5093647;28;20842;-86
2023/07/12 12:26:41;;;;;;;2.03;1.17;;;13.60;99.90;;;;;;5073608;28;20199;-86
2023/07/12 12:29:18;;;;;;;3.93;1.23;;;13.60;99.90;;;;;;5076976;28;20282;-87
2023/07/12 12:31:56;;;;;;;2.20;1.03;;;13.60;99.90;;;;;;5091028;28;20199;-87
2023/07/12 12:34:36;;;;;;;2.30;1.20;;;13.60;99.90;;;;;;5092141;28;20206;-87
2023/07/12 12:37:12;;;;;;;2.60;1.30;;;13.50;99.90;;;;;;5091138;28;20209;-85
2023/07/12 12:39:47;;;;;;;2.30;1.40;;;13.50;99.90;;;;;;5090392;28;20203;-85
2023/07/12 12:42:23;;;;;;;1.43;1.23;;;13.40;99.90;;;;;;5087362;28;20244;-86
2023/07/12 12:44:57;;;;;;;3.57;1.53;;;13.40;99.90;;;;;;5104100;28;20199;-86
2023/07/12 12:47:31;;;;;;;4.07;1.33;;;13.40;99.90;;;;;;5090614;28;20309;-87
2023/07/12 12:50:03;;;;;;;3.17;1.20;;;13.40;99.90;;;;;;5091823;28;20198;-86
2023/07/12 12:52:39;;;;;;;4.77;1.03;;;13.40;99.90;;;;;;5092840;28;20250;-86
2023/07/12 12:55:14;;;;;;;2.13;1.37;;;13.50;99.90;;;;;;5100700;28;20205;-86
2023/07/12 12:58:07;;;;;;;2.13;1.10;;;13.60;99.90;;;;;;5102271;28;20200;-86
2023/07/12 13:00:54;;;;;;;3.60;1.87;;;13.60;99.90;;;;;;5083510;28;20215;-87
2023/07/12 13:03:28;;;;;;;2.23;1.20;;;13.60;99.90;;;;;;5095419;28;20206;-86
2023/07/12 13:06:02;;;;;;;2.10;1.20;;;13.60;99.90;;;;;;5087628;28;20200;-86
2023/07/12 13:08:33;;;;;;;5.37;1.53;;;13.50;99.90;;;;;;5086275;28;20254;-85
2023/07/12 13:11:07;;;;;;;2.87;1.40;;;13.60;99.90;;;;;;5085573;28;20207;-86
2023/07/12 13:13:42;;;;;;;4.00;1.20;;;13.60;99.90;;;;;;5091561;28;20224;-86
2023/07/12 13:16:22;;;;;;;2.90;1.37;;;13.60;99.90;;;;;;5101036;28;20286;-85
2023/07/12 13:18:56;;;;;;;4.27;1.23;;;13.70;99.90;;;;;;5093770;28;20203;-87
2023/07/12 13:21:31;;;;;;;7.30;1.67;;;13.80;99.90;;;;;;5094128;28;20652;-87
2023/07/12 13:24:02;;;;;;;2.73;1.30;;;14.00;99.90;;;;;;5097031;28;20203;-87
2023/07/12 13:26:35;;;;;;;2.63;1.40;;;14.20;99.90;;;;;;5091568;28;20816;-87
2023/07/12 13:29:19;;;;;;;4.50;1.77;;;14.30;99.90;;;;;;5090577;28;20254;-86
2023/07/12 13:31:53;;;;;;;2.73;1.20;;;14.40;99.90;;;;;;5091362;28;20274;-87
2023/07/12 13:34:24;;;;;;;3.00;1.77;;;14.50;99.90;;;;;;5087980;28;20207;-87
2023/07/12 13:37:19;;;;;;;3.23;1.53;;;14.70;99.90;;;;;;5077288;28;20203;-87